Time;durP1;ratioP1;P1;durP2;ratioP2;P2;SDS_P1;SDS_P2;PMS_P1;PMS_P2;Temp;Humidity;BMP_temperature;BMP_pressure;BME280_temperature;BME280_humidity;BME280_pressure;Samples;Min_cycle;Max_cycle;Signal;HPM_P1;HPM_P2
2024/01/17 00:00:42;;;;;;;;;;;;;;;7.61;46.33;99690.47;4938492;28;98226;-65
2024/01/17 00:03:08;;;;;;;;;;;;;;;7.59;46.33;99692.66;4924226;28;112817;-72
2024/01/17 00:05:35;;;;;;;;;;;;;;;7.59;47.05;99684.59;4926848;28;109629;-65
2024/01/17 00:08:02;;;;;;;;;;;;;;;7.59;46.90;99686.47;4940202;28;98436;-72
2024/01/17 00:10:28;;;;;;;;;;;;;;;7.59;46.97;99683.78;4953220;28;98298;-65
2024/01/17 00:12:54;;;;;;;;;;;;;;;7.57;46.74;99684.03;4922029;28;98266;-65
2024/01/17 00:15:21;;;;;;;;;;;;;;;7.57;47.08;99680.56;4931191;28;97902;-65
2024/01/17 00:17:47;;;;;;;;;;;;;;;7.55;46.94;99680.84;4926978;28;98142;-64
2024/01/17 00:20:14;;;;;;;;;;;;;;;7.55;46.68;99680.84;4925723;28;99482;-65
2024/01/17 00:22:40;;;;;;;;;;;;;;;7.54;46.94;99684.56;4926453;28;98261;-72
2024/01/17 00:25:08;;;;;;;;;;;;;;;7.52;47.02;99676.00;4922608;28;98156;-72
2024/01/17 00:27:37;;;;;;;;;;;;;;;7.52;46.80;99677.88;4936245;28;98188;-65
2024/01/17 00:30:03;;;;;;;;;;;;;;;7.51;46.39;99679.75;4940151;28;99774;-72
2024/01/17 00:32:31;;;;;;;;;;;;;;;7.50;46.82;99678.13;4941752;28;97991;-65
2024/01/17 00:34:57;;;;;;;;;;;;;;;7.50;46.39;99682.69;4941817;28;98397;-72
2024/01/17 00:37:23;;;;;;;;;;;;;;;7.48;46.83;99682.16;4920983;28;129631;-65
2024/01/17 00:39:50;;;;;;;;;;;;;;;7.47;46.64;99681.34;4938174;28;98475;-65
2024/01/17 00:42:16;;;;;;;;;;;;;;;7.46;46.81;99677.03;4928710;28;98032;-65
2024/01/17 00:44:42;;;;;;;;;;;;;;;7.45;46.71;99675.44;4942150;28;98811;-65
2024/01/17 00:47:08;;;;;;;;;;;;;;;7.45;46.67;99674.66;4918507;28;111693;-72
2024/01/17 00:49:34;;;;;;;;;;;;;;;7.43;46.70;99661.50;4934865;28;98101;-72
2024/01/17 00:52:00;;;;;;;;;;;;;;;7.42;46.79;99662.56;4920275;28;98061;-73
2024/01/17 00:54:26;;;;;;;;;;;;;;;7.41;46.61;99658.28;4934569;28;98396;-72
2024/01/17 00:56:52;;;;;;;;;;;;;;;7.39;46.78;99652.38;4937046;28;98119;-65
2024/01/17 00:59:19;;;;;;;;;;;;;;;7.39;46.65;99652.38;4941334;28;98531;-65
2024/01/17 01:01:45;;;;;;;;;;;;;;;7.39;46.77;99647.03;4935493;28;99813;-72
2024/01/17 01:04:11;;;;;;;;;;;;;;;7.37;46.88;99641.09;4923782;28;126286;-65
2024/01/17 01:06:37;;;;;;;;;;;;;;;7.36;46.88;99643.00;4921557;28;99445;-65
2024/01/17 01:09:03;;;;;;;;;;;;;;;7.35;46.57;99637.91;4935484;28;110489;-65
2024/01/17 01:11:32;;;;;;;;;;;;;;;7.35;47.13;99638.72;4937972;28;105011;-73
2024/01/17 01:14:00;;;;;;;;;;;;;;;7.34;46.81;99630.91;4938215;28;98072;-72
2024/01/17 01:16:26;;;;;;;;;;;;;;;7.32;46.70;99631.19;4955617;28;99962;-72
2024/01/17 01:18:52;;;;;;;;;;;;;;;7.32;46.55;99623.16;4922936;28;98287;-65
2024/01/17 01:21:19;;;;;;;;;;;;;;;7.32;46.22;99631.19;4920824;28;126157;-72
2024/01/17 01:23:48;;;;;;;;;;;;;;;7.31;46.52;99631.44;4926904;28;98012;-65
2024/01/17 01:26:14;;;;;;;;;;;;;;;7.31;46.26;99628.75;4919085;28;98161;-72
2024/01/17 01:28:40;;;;;;;;;;;;;;;7.31;46.54;99626.06;4921860;28;98096;-72
2024/01/17 01:31:06;;;;;;;;;;;;;;;7.30;46.62;99627.16;4931183;28;108250;-72
2024/01/17 01:33:33;;;;;;;;;;;;;;;7.28;46.71;99627.44;4926477;28;99613;-65
2024/01/17 01:35:59;;;;;;;;;;;;;;;7.26;46.67;99628.75;4920745;28;98202;-72
2024/01/17 01:38:25;;;;;;;;;;;;;;;7.21;46.67;99629.56;4926746;28;97890;-65
2024/01/17 01:40:51;;;;;;;;;;;;;;;7.19;46.61;99636.25;4926064;28;98140;-65
2024/01/17 01:43:23;;;;;;;;;;;;;;;7.17;46.82;99628.47;4925040;28;98252;-72
2024/01/17 01:46:06;;;;;;;;;;;;;;;7.14;46.34;99624.44;4937613;28;98335;-72
2024/01/17 01:48:32;;;;;;;;;;;;;;;7.13;46.44;99619.34;4940973;28;98416;-65
2024/01/17 01:50:58;;;;;;;;;;;;;;;7.10;46.56;99622.56;4919838;28;98051;-72
2024/01/17 01:53:29;;;;;;;;;;;;;;;7.09;46.81;99616.41;4939927;28;98322;-64
2024/01/17 01:55:55;;;;;;;;;;;;;;;7.07;46.48;99615.88;4922700;28;97969;-65
2024/01/17 01:58:22;;;;;;;;;;;;;;;7.06;46.57;99614.22;4926298;28;98695;-65
2024/01/17 02:00:57;;;;;;;;;;;;;;;7.05;46.44;99615.31;4924462;28;98183;-72
2024/01/17 02:03:24;;;;;;;;;;;;;;;7.04;46.48;99608.34;4939926;28;98217;-65
2024/01/17 02:05:50;;;;;;;;;;;;;;;7.02;46.70;99607.78;4941948;28;97956;-72
2024/01/17 02:08:16;;;;;;;;;;;;;;;7.01;46.58;99603.50;4928170;28;99447;-72
2024/01/17 02:10:42;;;;;;;;;;;;;;;7.00;46.36;99599.22;4927844;28;97778;-72
2024/01/17 02:13:09;;;;;;;;;;;;;;;7.00;46.28;99601.09;4921839;28;99719;-65
2024/01/17 02:15:35;;;;;;;;;;;;;;;6.97;46.40;99589.03;4935540;28;98121;-65
2024/01/17 02:18:01;;;;;;;;;;;;;;;6.97;46.70;99591.72;4921603;28;108347;-65
2024/01/17 02:20:27;;;;;;;;;;;;;;;6.96;46.64;99590.09;4925132;28;111455;-65
2024/01/17 02:22:53;;;;;;;;;;;;;;;6.95;46.73;99591.16;4923540;28;97995;-72
2024/01/17 02:25:19;;;;;;;;;;;;;;;6.94;46.46;99581.50;4925729;28;99657;-71
2024/01/17 02:27:45;;;;;;;;;;;;;;;6.93;46.34;99579.91;4941328;28;110305;-65
2024/01/17 02:30:12;;;;;;;;;;;;;;;6.92;46.39;99572.94;4922275;28;99672;-65
2024/01/17 02:32:38;;;;;;;;;;;;;;;6.89;46.63;99565.44;4934151;28;104408;-72
2024/01/17 02:35:04;;;;;;;;;;;;;;;6.89;46.68;99570.78;4937688;28;100237;-65
2024/01/17 02:37:30;;;;;;;;;;;;;;;6.88;46.64;99559.28;4939482;28;98030;-65
2024/01/17 02:39:56;;;;;;;;;;;;;;;6.87;46.73;99564.88;4923287;28;98248;-65
2024/01/17 02:42:22;;;;;;;;;;;;;;;6.86;46.37;99560.59;4922618;28;99605;-72
2024/01/17 02:44:50;;;;;;;;;;;;;;;6.85;46.42;99559.81;4925360;28;98781;-72
2024/01/17 02:47:16;;;;;;;;;;;;;;;6.84;46.60;99550.16;4926146;28;98114;-65
2024/01/17 02:49:42;;;;;;;;;;;;;;;6.83;46.49;99551.22;4925471;28;129299;-73
2024/01/17 02:52:08;;;;;;;;;;;;;;;6.82;46.43;99548.81;4922506;28;98245;-65
2024/01/17 02:54:34;;;;;;;;;;;;;;;6.82;46.66;99546.13;4921955;28;98252;-72
2024/01/17 02:57:01;;;;;;;;;;;;;;;6.81;46.49;99542.66;4923465;28;98103;-65
2024/01/17 02:59:27;;;;;;;;;;;;;;;6.80;46.38;99534.88;4933846;28;98841;-65
2024/01/17 03:01:53;;;;;;;;;;;;;;;6.80;46.52;99532.22;4937377;28;98575;-72
2024/01/17 03:04:19;;;;;;;;;;;;;;;6.78;46.31;99526.28;4922544;28;98335;-72
2024/01/17 03:06:49;;;;;;;;;;;;;;;6.76;46.71;99523.06;4920446;28;97828;-72
2024/01/17 03:09:15;;;;;;;;;;;;;;;6.76;46.47;99517.69;4943765;28;98233;-65
2024/01/17 03:11:41;;;;;;;;;;;;;;;6.75;46.55;99510.75;4942542;28;100044;-72
2024/01/17 03:14:07;;;;;;;;;;;;;;;6.74;46.25;99506.47;4925680;28;110510;-72
2024/01/17 03:16:33;;;;;;;;;;;;;;;6.72;46.52;99504.06;4939775;28;99692;-65
2024/01/17 03:18:59;;;;;;;;;;;;;;;6.72;46.26;99505.91;4928576;28;98141;-65
2024/01/17 03:21:25;;;;;;;;;;;;;;;6.70;46.40;99502.72;4927471;28;99865;-65
2024/01/17 03:23:51;;;;;;;;;;;;;;;6.70;46.57;99500.03;4925329;28;99947;-72
2024/01/17 03:26:18;;;;;;;;;;;;;;;6.70;46.62;99497.34;4939259;28;101335;-72
2024/01/17 03:28:44;;;;;;;;;;;;;;;6.69;46.37;99493.06;4943298;28;98727;-73
2024/01/17 03:31:10;;;;;;;;;;;;;;;6.66;46.58;99478.31;4925400;28;103092;-72
2024/01/17 03:33:36;;;;;;;;;;;;;;;6.67;46.29;99484.47;4926067;28;112286;-72
2024/01/17 03:36:02;;;;;;;;;;;;;;;6.66;46.54;99474.84;4943909;28;97915;-71
2024/01/17 03:38:28;;;;;;;;;;;;;;;6.63;46.39;99474.28;4923711;28;98189;-72
2024/01/17 03:40:56;;;;;;;;;;;;;;;6.63;46.23;99474.28;4941537;28;97976;-72
2024/01/17 03:43:22;;;;;;;;;;;;;;;6.62;46.44;99467.34;4939759;28;98023;-65
2024/01/17 03:45:49;;;;;;;;;;;;;;;6.61;46.35;99463.06;4926911;28;98592;-72
2024/01/17 03:48:15;;;;;;;;;;;;;;;6.63;46.55;99460.91;4922943;28;99631;-64
2024/01/17 03:50:41;;;;;;;;;;;;;;;6.68;46.43;99453.94;4926895;28;128992;-65
2024/01/17 03:53:07;;;;;;;;;;;;;;;6.74;46.52;99452.91;4942059;28;98052;-72
2024/01/17 03:55:33;;;;;;;;;;;;;;;6.79;46.59;99453.69;4954395;28;122940;-72
2024/01/17 03:57:59;;;;;;;;;;;;;;;6.81;46.50;99451.56;4937286;28;98173;-65
2024/01/17 04:00:25;;;;;;;;;;;;;;;6.84;46.56;99448.34;4937139;28;113189;-65
2024/01/17 04:02:51;;;;;;;;;;;;;;;6.86;46.81;99453.44;4937387;28;97947;-65
2024/01/17 04:05:19;;;;;;;;;;;;;;;6.87;46.60;99439.75;4922918;28;98154;-65
2024/01/17 04:07:45;;;;;;;;;;;;;;;6.87;46.58;99445.13;4943990;28;98263;-72
2024/01/17 04:10:11;;;;;;;;;;;;;;;6.91;46.28;99439.25;4922435;28;99432;-72
2024/01/17 04:12:38;;;;;;;;;;;;;;;6.90;46.59;99435.75;4923383;28;99122;-72
2024/01/17 04:15:05;;;;;;;;;;;;;;;6.91;46.57;99425.84;4946262;28;98413;-72
2024/01/17 04:17:32;;;;;;;;;;;;;;;6.92;46.44;99427.44;4938487;28;99839;-72
2024/01/17 04:19:58;;;;;;;;;;;;;;;6.91;46.59;99431.19;4924936;28;98141;-65
2024/01/17 04:22:24;;;;;;;;;;;;;;;6.89;46.55;99418.09;4940792;28;98002;-65
2024/01/17 04:24:50;;;;;;;;;;;;;;;6.89;46.38;99416.19;4924489;28;98584;-65
2024/01/17 04:27:17;;;;;;;;;;;;;;;6.88;46.42;99408.44;4925141;28;98028;-65
2024/01/17 04:29:43;;;;;;;;;;;;;;;6.87;46.45;99406.81;4940697;28;98659;-72
2024/01/17 04:32:09;;;;;;;;;;;;;;;6.86;46.48;99400.66;4938242;28;97960;-72
2024/01/17 04:34:35;;;;;;;;;;;;;;;6.86;46.55;99403.34;4932768;28;98148;-65
2024/01/17 04:37:01;;;;;;;;;;;;;;;6.88;46.61;99395.84;4930416;28;99217;-65
2024/01/17 04:39:27;;;;;;;;;;;;;;;6.95;46.67;99398.25;4924233;28;97785;-72
2024/01/17 04:41:53;;;;;;;;;;;;;;;7.05;46.52;99390.19;4903947;28;99479;-65
2024/01/17 04:44:19;;;;;;;;;;;;;;;7.16;46.30;99382.97;4952770;28;109641;-66
2024/01/17 04:46:46;;;;;;;;;;;;;;;7.28;46.31;99372.75;4937571;28;98073;-65
2024/01/17 04:49:12;;;;;;;;;;;;;;;7.38;46.64;99375.38;4916329;28;98338;-72
2024/01/17 04:51:39;;;;;;;;;;;;;;;7.46;46.35;99365.97;4930014;28;99277;-72
2024/01/17 04:54:05;;;;;;;;;;;;;;;7.49;46.30;99359.28;4943030;28;98199;-65
2024/01/17 04:56:30;;;;;;;;;;;;;;;7.50;46.47;99355.50;4925407;28;99927;-72
2024/01/17 04:58:57;;;;;;;;;;;;;;;7.51;45.88;99351.78;4920325;28;100483;-65
2024/01/17 05:01:23;;;;;;;;;;;;;;;7.50;46.10;99352.84;4939845;28;98536;-65
2024/01/17 05:03:49;;;;;;;;;;;;;;;7.51;46.30;99343.72;4941872;28;97774;-65
2024/01/17 05:06:15;;;;;;;;;;;;;;;7.56;46.34;99352.56;4924873;28;98126;-65
2024/01/17 05:08:41;;;;;;;;;;;;;;;7.66;46.26;99349.00;4921275;28;98875;-65
2024/01/17 05:11:07;;;;;;;;;;;;;;;7.76;46.37;99335.56;4953548;28;98493;-67
2024/01/17 05:13:33;;;;;;;;;;;;;;;7.81;46.14;99332.84;4940387;28;120128;-71
2024/01/17 05:15:58;;;;;;;;;;;;;;;7.85;46.14;99333.09;4922031;28;98625;-72
2024/01/17 05:18:24;;;;;;;;;;;;;;;7.84;46.42;99323.44;4919189;28;120275;-65
2024/01/17 05:20:50;;;;;;;;;;;;;;;7.84;46.35;99318.09;4922745;28;99672;-65
2024/01/17 05:23:16;;;;;;;;;;;;;;;7.82;46.46;99317.53;4938469;28;97985;-65
2024/01/17 05:25:42;;;;;;;;;;;;;;;7.78;46.65;99316.50;4936965;28;127319;-65
2024/01/17 05:28:08;;;;;;;;;;;;;;;7.76;46.11;99311.41;4933352;28;98256;-65
2024/01/17 05:30:34;;;;;;;;;;;;;;;7.73;46.59;99309.28;4936320;28;114066;-65
2024/01/17 05:33:00;;;;;;;;;;;;;;;7.71;46.13;99305.28;4921887;28;98496;-65
2024/01/17 05:35:28;;;;;;;;;;;;;;;7.68;46.29;99301.28;4931939;28;115939;-71
2024/01/17 05:37:54;;;;;;;;;;;;;;;7.64;46.42;99292.16;4935022;28;98444;-71
2024/01/17 05:40:20;;;;;;;;;;;;;;;7.62;46.74;99283.59;4935587;28;99348;-71
2024/01/17 05:42:46;;;;;;;;;;;;;;;7.58;46.27;99278.00;4920607;28;120768;-72
2024/01/17 05:45:12;;;;;;;;;;;;;;;7.56;46.18;99279.34;4920230;28;127686;-71
2024/01/17 05:47:38;;;;;;;;;;;;;;;7.53;46.58;99271.84;4932614;28;98265;-65
2024/01/17 05:50:09;;;;;;;;;;;;;;;7.50;46.10;99259.78;4945290;28;98640;-71
2024/01/17 05:52:39;;;;;;;;;;;;;;;7.47;46.32;99254.19;4934832;28;99104;-65
2024/01/17 05:55:09;;;;;;;;;;;;;;;7.46;46.54;99257.94;4930441;28;98191;-71
2024/01/17 05:57:36;;;;;;;;;;;;;;;7.44;46.38;99262.78;4915400;28;99840;-71
2024/01/17 06:00:03;;;;;;;;;;;;;;;7.41;46.40;99260.63;4917267;28;98291;-65
2024/01/17 06:02:29;;;;;;;;;;;;;;;7.38;46.22;99262.78;4921622;28;98108;-65
2024/01/17 06:04:55;;;;;;;;;;;;;;;7.37;46.24;99255.81;4925294;28;108222;-65
2024/01/17 06:07:21;;;;;;;;;;;;;;;7.36;46.59;99248.06;4934738;28;99139;-65
2024/01/17 06:09:47;;;;;;;;;;;;;;;7.34;46.52;99245.63;4929581;28;105071;-71
2024/01/17 06:12:13;;;;;;;;;;;;;;;7.33;46.68;99237.88;4936538;28;98662;-71
2024/01/17 06:14:40;;;;;;;;;;;;;;;7.31;46.18;99230.13;4935095;28;123227;-71
2024/01/17 06:17:06;;;;;;;;;;;;;;;7.31;46.23;99234.66;4934384;28;99622;-71
2024/01/17 06:19:32;;;;;;;;;;;;;;;7.30;46.22;99233.06;4919744;28;124686;-71
2024/01/17 06:21:58;;;;;;;;;;;;;;;7.29;46.05;99229.59;4925535;28;99363;-65
2024/01/17 06:24:24;;;;;;;;;;;;;;;7.28;46.33;99228.00;4939265;28;102442;-65
2024/01/17 06:26:50;;;;;;;;;;;;;;;7.28;46.57;99221.84;4923076;28;114581;-71
2024/01/17 06:29:16;;;;;;;;;;;;;;;7.28;46.38;99219.94;4924813;28;103822;-64
2024/01/17 06:31:42;;;;;;;;;;;;;;;7.25;46.43;99212.44;4923620;28;110311;-65
2024/01/17 06:34:08;;;;;;;;;;;;;;;7.26;46.15;99203.31;4950810;28;112879;-65
2024/01/17 06:36:34;;;;;;;;;;;;;;;7.27;46.38;99201.44;4921443;28;127514;-65
2024/01/17 06:39:00;;;;;;;;;;;;;;;7.27;46.40;99202.28;4935918;28;98390;-65
2024/01/17 06:41:25;;;;;;;;;;;;;;;7.26;46.13;99195.28;4922984;28;99755;-71
2024/01/17 06:43:51;;;;;;;;;;;;;;;7.26;46.26;99197.97;4936204;28;98390;-71
2024/01/17 06:46:17;;;;;;;;;;;;;;;7.27;46.60;99193.41;4926168;28;120400;-71
2024/01/17 06:48:44;;;;;;;;;;;;;;;7.27;45.93;99185.34;4941818;28;127291;-71
2024/01/17 06:51:10;;;;;;;;;;;;;;;7.28;46.50;99181.63;4937724;28;98090;-73
2024/01/17 06:53:36;;;;;;;;;;;;;;;7.28;46.34;99178.94;4944121;28;110459;-71
2024/01/17 06:56:02;;;;;;;;;;;;;;;7.28;45.95;99174.38;4940739;28;115314;-71
2024/01/17 06:58:28;;;;;;;;;;;;;;;7.29;45.89;99180.53;4942979;28;113712;-71
2024/01/17 07:00:53;;;;;;;;;;;;;;;7.28;46.44;99162.84;4935525;28;121102;-65
2024/01/17 07:03:20;;;;;;;;;;;;;;;7.29;46.30;99151.03;4922386;28;99255;-71
2024/01/17 07:05:46;;;;;;;;;;;;;;;7.30;46.45;99141.91;4924550;28;98956;-65
2024/01/17 07:08:12;;;;;;;;;;;;;;;7.31;46.43;99138.16;4943417;28;97934;-72
2024/01/17 07:10:39;;;;;;;;;;;;;;;7.31;46.22;99125.56;4920559;28;103268;-71
2024/01/17 07:13:05;;;;;;;;;;;;;;;7.32;46.24;99116.44;4926977;28;98280;-65
2024/01/17 07:15:31;;;;;;;;;;;;;;;7.35;46.59;99118.59;4927083;28;99326;-65
2024/01/17 07:17:58;;;;;;;;;;;;;;;7.36;46.34;99114.00;4928897;28;98985;-71
2024/01/17 07:20:24;;;;;;;;;;;;;;;7.40;46.00;99103.53;4940577;28;99311;-65
2024/01/17 07:22:50;;;;;;;;;;;;;;;7.43;46.21;99101.09;4926147;28;98127;-71
2024/01/17 07:25:16;;;;;;;;;;;;;;;7.47;46.02;99101.34;4919833;28;112678;-69
2024/01/17 07:27:46;;;;;;;;;;;;;;;7.49;46.14;99099.97;4926160;28;98341;-65
2024/01/17 07:30:15;;;;;;;;;;;;;;;7.53;46.21;99105.56;4954813;28;99087;-65
2024/01/17 07:32:41;;;;;;;;;;;;;;;7.56;46.09;99100.47;4942534;28;99396;-65
2024/01/17 07:35:07;;;;;;;;;;;;;;;7.60;45.99;99089.97;4924669;28;97921;-65
2024/01/17 07:37:35;;;;;;;;;;;;;;;7.62;46.25;99080.56;4939192;28;127789;-65
2024/01/17 07:40:01;;;;;;;;;;;;;;;7.68;46.25;99078.63;4926078;28;99837;-71
2024/01/17 07:42:27;;;;;;;;;;;;;;;7.73;46.04;99073.22;4924867;28;128451;-71
2024/01/17 07:44:53;;;;;;;;;;;;;;;7.79;46.45;99082.03;4938846;28;124098;-71
2024/01/17 07:47:19;;;;;;;;;;;;;;;7.82;45.79;99076.91;4941200;28;101177;-65
2024/01/17 07:49:45;;;;;;;;;;;;;;;7.88;45.84;99066.91;4924626;28;98080;-65
2024/01/17 07:52:11;;;;;;;;;;;;;;;7.91;45.85;99066.34;4926030;28;123096;-64
2024/01/17 07:54:37;;;;;;;;;;;;;;;7.97;45.58;99061.72;4934867;28;130806;-71
2024/01/17 07:57:04;;;;;;;;;;;;;;;8.04;45.78;99060.31;4938478;28;98202;-65
2024/01/17 07:59:30;;;;;;;;;;;;;;;8.11;46.14;99039.31;4925300;28;98155;-71
2024/01/17 08:01:56;;;;;;;;;;;;;;;8.22;45.39;99033.84;4937018;28;98254;-71
2024/01/17 08:04:22;;;;;;;;;;;;;;;8.34;46.05;99039.59;4939528;28;99137;-65
2024/01/17 08:06:48;;;;;;;;;;;;;;;8.59;45.08;99035.81;4937831;28;100081;-65
2024/01/17 08:09:20;;;;;;;;;;;;;;;8.84;45.52;99032.81;4938303;28;98235;-71
2024/01/17 08:11:56;;;;;;;;;;;;;;;8.92;45.23;99020.63;4927502;28;98055;-72
2024/01/17 08:14:23;;;;;;;;;;;;;;;8.97;45.52;99017.84;4925396;28;98201;-71
2024/01/17 08:16:49;;;;;;;;;;;;;;;9.03;45.39;99007.81;4934413;28;98814;-65
2024/01/17 08:19:15;;;;;;;;;;;;;;;9.26;45.14;99001.53;4954757;28;98276;-71
2024/01/17 08:21:44;;;;;;;;;;;;;;;9.43;44.75;99000.19;4925351;28;127781;-65
2024/01/17 08:24:10;;;;;;;;;;;;;;;9.82;45.10;98986.28;4934809;28;98288;-65
2024/01/17 08:26:38;;;;;;;;;;;;;;;10.36;44.50;98987.44;4924040;28;128415;-72
2024/01/17 08:29:04;;;;;;;;;;;;;;;10.75;44.39;98986.84;4923758;28;98061;-71
2024/01/17 08:31:30;;;;;;;;;;;;;;;11.17;44.06;98986.72;4924890;28;98414;-73
2024/01/17 08:33:57;;;;;;;;;;;;;;;11.39;44.45;98980.50;4926157;28;105864;-65
2024/01/17 08:36:23;;;;;;;;;;;;;;;11.84;44.03;98958.88;4924256;28;113621;-72
2024/01/17 08:38:49;;;;;;;;;;;;;;;12.39;44.34;98956.47;4927605;28;106504;-71
2024/01/17 08:41:19;;;;;;;;;;;;;;;12.81;43.90;98942.50;4936804;28;98374;-65
2024/01/17 08:43:45;;;;;;;;;;;;;;;13.26;43.93;98940.28;4939873;28;98754;-65
2024/01/17 08:46:11;;;;;;;;;;;;;;;13.63;44.01;98936.03;4926670;28;104468;-66
2024/01/17 08:48:37;;;;;;;;;;;;;;;14.14;43.48;98936.91;4929866;28;98577;-72
2024/01/17 08:51:03;;;;;;;;;;;;;;;14.53;43.66;98929.50;4937071;28;99625;-71
2024/01/17 08:53:31;;;;;;;;;;;;;;;14.88;43.41;98916.47;4943846;28;98681;-65
2024/01/17 08:55:58;;;;;;;;;;;;;;;15.12;43.74;98912.25;4924116;28;99167;-71
2024/01/17 08:58:24;;;;;;;;;;;;;;;15.29;43.67;98916.72;4924877;28;98251;-71
2024/01/17 09:00:50;;;;;;;;;;;;;;;15.60;43.54;98898.03;4936514;28;102936;-66
2024/01/17 09:03:16;;;;;;;;;;;;;;;15.82;43.54;98891.38;4936083;28;127333;-66
2024/01/17 09:05:42;;;;;;;;;;;;;;;15.98;43.62;98891.47;4938169;28;99503;-65
2024/01/17 09:08:08;;;;;;;;;;;;;;;16.13;43.56;98887.28;4924865;28;98282;-71
2024/01/17 09:10:34;;;;;;;;;;;;;;;16.28;43.51;98883.84;4919709;28;127623;-71
2024/01/17 09:13:00;;;;;;;;;;;;;;;16.52;43.34;98877.56;4929868;28;97930;-65
2024/01/17 09:15:26;;;;;;;;;;;;;;;16.53;43.67;98876.41;4923277;28;117204;-71
2024/01/17 09:17:52;;;;;;;;;;;;;;;16.59;43.57;98864.16;4927373;28;98124;-65
2024/01/17 09:20:18;;;;;;;;;;;;;;;16.55;43.90;98860.56;4928105;28;98112;-71
2024/01/17 09:22:46;;;;;;;;;;;;;;;16.52;43.97;98860.44;4938679;28;98805;-71
2024/01/17 09:25:12;;;;;;;;;;;;;;;16.55;43.96;98854.31;4925024;28;99617;-71
2024/01/17 09:27:38;;;;;;;;;;;;;;;16.59;44.21;98858.72;4926274;28;98169;-72
2024/01/17 09:30:05;;;;;;;;;;;;;;;16.61;44.13;98848.28;4925203;28;118014;-65
2024/01/17 09:32:31;;;;;;;;;;;;;;;16.67;44.09;98841.47;4924653;28;116861;-72
2024/01/17 09:34:57;;;;;;;;;;;;;;;16.54;44.24;98847.28;4920024;28;99307;-72
2024/01/17 09:37:23;;;;;;;;;;;;;;;16.59;44.19;98845.13;4923570;28;123774;-65
2024/01/17 09:39:49;;;;;;;;;;;;;;;16.62;44.20;98835.47;4940863;28;98684;-72
2024/01/17 09:42:16;;;;;;;;;;;;;;;16.68;44.22;98834.88;4930161;28;97973;-72
2024/01/17 09:44:42;;;;;;;;;;;;;;;16.83;44.16;98833.38;4925083;28;97930;-65
2024/01/17 09:47:11;;;;;;;;;;;;;;;17.30;43.31;98820.97;4925835;28;97983;-72
2024/01/17 09:49:39;;;;;;;;;;;;;;;17.46;43.41;98812.78;4927718;28;99783;-72
2024/01/17 09:52:06;;;;;;;;;;;;;;;17.57;43.63;98800.22;4924671;28;99762;-65
2024/01/17 09:54:41;;;;;;;;;;;;;;;17.37;43.65;98797.41;4935114;28;98718;-72
2024/01/17 09:57:07;;;;;;;;;;;;;;;16.97;44.13;98804.94;4940776;28;97987;-65
2024/01/17 09:59:35;;;;;;;;;;;;;;;16.70;44.42;98793.72;4928003;28;98010;-65
2024/01/17 10:02:01;;;;;;;;;;;;;;;16.49;44.54;98785.00;4955637;28;115424;-73
2024/01/17 10:04:27;;;;;;;;;;;;;;;16.36;44.56;98779.59;4923341;28;128225;-73
2024/01/17 10:06:56;;;;;;;;;;;;;;;16.23;44.71;98775.38;4923102;28;99148;-73
2024/01/17 10:09:23;;;;;;;;;;;;;;;16.12;44.76;98760.69;4953301;28;99421;-65
2024/01/17 10:11:50;;;;;;;;;;;;;;;15.99;44.74;98761.81;4924194;28;98662;-73
2024/01/17 10:14:16;;;;;;;;;;;;;;;15.84;44.99;98747.84;4938525;28;101011;-71
2024/01/17 10:16:42;;;;;;;;;;;;;;;15.66;45.01;98746.50;4944125;28;98164;-66
2024/01/17 10:19:08;;;;;;;;;;;;;;;15.46;44.98;98735.41;4937696;28;98548;-66
2024/01/17 10:21:35;;;;;;;;;;;;;;;15.30;45.21;98731.03;4947773;28;130530;-74
2024/01/17 10:24:04;;;;;;;;;;;;;;;15.10;45.41;98730.81;4922220;28;98142;-66
2024/01/17 10:26:34;;;;;;;;;;;;;;;14.91;45.48;98723.22;4938458;28;98417;-66
2024/01/17 10:29:00;;;;;;;;;;;;;;;14.74;45.15;98723.41;4924887;28;98501;-74
2024/01/17 10:31:26;;;;;;;;;;;;;;;14.58;45.54;98727.88;4920345;28;130268;-71
2024/01/17 10:33:53;;;;;;;;;;;;;;;14.43;45.40;98721.16;4922642;28;129214;-66
2024/01/17 10:36:19;;;;;;;;;;;;;;;14.25;45.37;98707.78;4928833;28;98493;-74
2024/01/17 10:38:49;;;;;;;;;;;;;;;14.11;45.84;98703.75;4922407;28;98085;-66
2024/01/17 10:41:15;;;;;;;;;;;;;;;13.99;45.38;98697.19;4938037;28;98403;-75
2024/01/17 10:43:57;;;;;;;;;;;;;;;13.88;45.51;98687.88;4923864;28;98546;-75
2024/01/17 10:46:23;;;;;;;;;;;;;;;13.77;45.50;98683.19;4923557;28;98395;-66
2024/01/17 10:48:50;;;;;;;;;;;;;;;13.66;45.62;98677.38;4934694;28;98732;-75
2024/01/17 10:51:23;;;;;;;;;;;;;;;13.58;45.38;98667.41;4953277;28;110688;-66
2024/01/17 10:53:50;;;;;;;;;;;;;;;13.46;45.89;98663.50;4926348;28;98027;-75
2024/01/17 10:56:19;;;;;;;;;;;;;;;13.34;45.69;98659.94;4924200;28;99799;-66
2024/01/17 10:58:51;;;;;;;;;;;;;;;13.23;45.66;98654.13;4941748;28;98051;-75
2024/01/17 11:01:25;;;;;;;;;;;;;;;13.14;45.52;98650.66;4937936;28;98206;-75
2024/01/17 11:03:56;;;;;;;;;;;;;;;13.04;45.48;98643.69;4952673;28;98151;-66
2024/01/17 11:06:22;;;;;;;;;;;;;;;12.94;45.66;98635.97;4926524;28;106076;-66
2024/01/17 11:08:49;;;;;;;;;;;;;;;12.87;45.56;98622.19;4938189;28;99404;-74
2024/01/17 11:11:15;;;;;;;;;;;;;;;12.80;45.75;98622.69;4925944;28;98232;-66
2024/01/17 11:13:41;;;;;;;;;;;;;;;12.72;45.74;98610.78;4927303;28;99033;-67
2024/01/17 11:16:07;;;;;;;;;;;;;;;12.64;46.00;98608.91;4926710;28;98227;-66
2024/01/17 11:18:36;;;;;;;;;;;;;;;12.56;45.80;98609.75;4926512;28;98199;-76
2024/01/17 11:21:04;;;;;;;;;;;;;;;12.45;45.73;98606.63;4940180;28;103596;-67
2024/01/17 11:23:41;;;;;;;;;;;;;;;12.38;45.80;98600.94;4926299;28;97958;-76
2024/01/17 11:26:17;;;;;;;;;;;;;;;12.33;45.70;98600.31;4942639;28;98604;-76
2024/01/17 11:29:03;;;;;;;;;;;;;;;12.28;45.96;98595.88;4943623;28;98487;-67
2024/01/17 11:32:02;;;;;;;;;;;;;;;12.25;45.82;98586.50;4956667;28;98556;-67
2024/01/17 11:34:28;;;;;;;;;;;;;;;12.24;45.80;98584.13;4908137;28;98223;-68
2024/01/17 11:36:54;;;;;;;;;;;;;;;12.23;45.60;98582.56;4923001;28;120136;-67
2024/01/17 11:39:22;;;;;;;;;;;;;;;12.20;45.64;98584.00;4929741;28;99487;-67
2024/01/17 11:41:49;;;;;;;;;;;;;;;12.16;45.69;98572.25;4925189;28;98339;-76
2024/01/17 11:44:16;;;;;;;;;;;;;;;12.09;45.80;98566.53;4929730;28;99077;-67
2024/01/17 11:46:44;;;;;;;;;;;;;;;12.04;46.10;98554.00;4936865;28;98366;-67
2024/01/17 11:49:14;;;;;;;;;;;;;;;11.98;45.72;98551.81;4929409;28;98075;-67
2024/01/17 11:51:40;;;;;;;;;;;;;;;11.91;45.84;98551.53;4926475;28;100235;-76
2024/01/17 11:54:10;;;;;;;;;;;;;;;11.85;45.85;98544.72;4940280;28;98276;-76
2024/01/17 11:56:36;;;;;;;;;;;;;;;11.79;46.17;98542.16;4940922;28;99560;-76
2024/01/17 11:59:12;;;;;;;;;;;;;;;11.73;45.96;98540.72;4929092;28;99547;-67
2024/01/17 12:01:44;;;;;;;;;;;;;;;11.68;45.73;98540.13;4924145;28;98253;-77
2024/01/17 12:04:17;;;;;;;;;;;;;;;11.63;45.78;98527.59;4925589;28;99932;-76
2024/01/17 12:06:49;;;;;;;;;;;;;;;11.60;45.93;98514.72;4939650;28;98224;-76
2024/01/17 12:09:21;;;;;;;;;;;;;;;11.55;45.67;98515.69;4940932;28;99777;-67
2024/01/17 12:11:47;;;;;;;;;;;;;;;11.54;45.76;98516.78;4930953;28;97963;-75
2024/01/17 12:14:14;;;;;;;;;;;;;;;11.53;45.79;98507.13;4929861;28;99902;-67
2024/01/17 12:16:42;;;;;;;;;;;;;;;11.52;45.69;98505.53;4946374;28;99443;-76
2024/01/17 12:19:10;;;;;;;;;;;;;;;11.51;45.74;98495.88;4940636;28;98426;-76
2024/01/17 12:21:36;;;;;;;;;;;;;;;11.51;45.65;98495.03;4929392;28;98095;-75
2024/01/17 12:24:03;;;;;;;;;;;;;;;11.51;45.77;98486.94;4937931;28;105674;-67
2024/01/17 12:26:32;;;;;;;;;;;;;;;11.51;45.65;98484.25;4937655;28;98247;-67
2024/01/17 12:29:08;;;;;;;;;;;;;;;11.52;45.70;98480.47;4944489;28;107251;-76
2024/01/17 12:31:34;;;;;;;;;;;;;;;11.53;45.47;98473.94;4929336;28;98192;-77
2024/01/17 12:34:00;;;;;;;;;;;;;;;11.61;45.62;98461.56;4939375;28;98140;-67
2024/01/17 12:36:26;;;;;;;;;;;;;;;11.72;45.64;98449.28;4926901;28;98040;-76
2024/01/17 12:38:52;;;;;;;;;;;;;;;11.82;45.36;98445.44;4924513;28;98316;-67
2024/01/17 12:41:18;;;;;;;;;;;;;;;11.90;45.20;98437.31;4924703;28;106167;-77
2024/01/17 12:43:44;;;;;;;;;;;;;;;11.99;45.14;98429.19;4920732;28;128846;-75
2024/01/17 12:46:10;;;;;;;;;;;;;;;12.07;45.16;98414.06;4959887;28;98788;-76
2024/01/17 12:48:36;;;;;;;;;;;;;;;12.11;45.13;98418.50;4925128;28;121147;-76